Etihad Airways Virtual Airport Information Service

Manchester Airport

ICAO: EGCC Country: United Kingdom
Latitude: 53.3537 Longitude: -2.27495
Latest Arrival : UAE19 (OMDB-EGCC) Latest Departure : UAE22 (EGCC-OMDB)


WX CaptureLIVE
Data provided by noaa.gov | Recorded at 08:42:27

METAR : EGCC 150750Z AUTO VRB03KT 9999 NCD 05/01 Q1035 NOSIG

TAF : EGCC 150454Z 1506/1612 11005KT 9999 SCT045= EGKK 150453Z 1506/1612 04006KT 9999 SCT045 PROB30 TEMPO 1512/1519 8000 SHRA TEMPO 1600/1608 7000 PROB30 1602/1607 3000 BR BKN006


Runway Data for EGCC
Data provided by openaviationdata.com

Runway ID Mag Var Hdg Length Elevation Surface ILS Freq ILS Id ILS Slope

Manchester Airport, United Kingdom
Use only for reference purposes